»·PEaware :: N1925Q KVNY-KWJF

N1925Q :: KVNY-KWJF

FLIGHT INFORMATION

Flight Status: Arrived
Operator: Privately registered:
United States
More flights under this callsign
Pilot: Michael D. (15839)
Aircraft: Unknown
(DA40)
More flights by this aircraft type
Origin: KVNY Van Nuys
United States
Destination: KWJF Gen Fox
United States
More flights between these airports :: More routes between these airports
Route: +NUAL9 PMD
File this flight plan on PilotEdge
Remarks:
Altitude:
(Current/Filed)
9,000ft
Speed:
(Current/Filed)
140kts
Departed: 15-May-19 08:45 PM
Arrived: 15-May-19 09:31 PM
Distance/Time
Traveled:
35nm/0:45
Distance/Time
To Go:
Arrived

Flight Plot

Page will automatically refresh every two minutes.

Flight plan parsing failed; only flown route is shown


Map Options




Map Legend


Flown Route
Filed Route
Departure Airport
Arrival Airport
Navaid (VOR, NDB)
Fix

Horizontal Profiles

Position Reports

Time Latitude Longitude Heading Altitude Ground
Speed
15-May-19 20:23 34.216147 -118.484838 152 805ft 0kts
15-May-19 20:24 34.216147 -118.484838 152 805ft 0kts
15-May-19 20:25 34.216147 -118.484838 152 805ft 0kts
15-May-19 20:26 34.216147 -118.484838 152 805ft 0kts
15-May-19 20:27 34.216147 -118.484838 152 805ft 0kts
15-May-19 20:28 34.216147 -118.484838 152 805ft 0kts
15-May-19 20:29 34.216147 -118.484838 152 805ft 0kts
15-May-19 20:30 34.216147 -118.484838 152 805ft 0kts
15-May-19 20:31 34.216147 -118.484838 152 805ft 0kts
15-May-19 20:32 34.216147 -118.484838 152 805ft 0kts
15-May-19 20:33 34.216147 -118.484838 152 805ft 0kts
15-May-19 20:34 34.216147 -118.484838 152 805ft 0kts
15-May-19 20:35 34.216147 -118.484838 152 805ft 0kts
15-May-19 20:36 34.216147 -118.484838 152 805ft 0kts
15-May-19 20:37 34.216114 -118.484833 249 805ft 0kts
15-May-19 20:38 34.215638 -118.484965 246 805ft 5kts
15-May-19 20:39 34.215748 -118.486238 278 805ft 9kts
15-May-19 20:40 34.216648 -118.489200 348 805ft 11kts
15-May-19 20:41 34.218733 -118.489613 267 805ft 0kts
15-May-19 20:42 34.218733 -118.489613 267 805ft 0kts
15-May-19 20:43 34.218733 -118.489613 266 805ft 0kts
15-May-19 20:44 34.214187 -118.490361 175 1039ft 46kts
15-May-19 20:45 34.198977 -118.488164 178 1871ft 83kts
15-May-19 20:46 34.178492 -118.487308 185 3148ft 81kts
15-May-19 20:47 34.158974 -118.477238 110 4294ft 94kts
15-May-19 20:48 34.182971 -118.468667 351 4723ft 136kts
15-May-19 20:49 34.214358 -118.475321 336 5573ft 128kts
15-May-19 20:50 34.244882 -118.492034 320 6221ft 122kts
15-May-19 20:51 34.275828 -118.485906 31 6869ft 129kts
15-May-19 20:52 34.307144 -118.463736 30 7561ft 128kts
15-May-19 20:53 34.338325 -118.441734 24 8247ft 131kts
15-May-19 20:55 34.369278 -118.453183 325 8933ft 119kts
15-May-19 20:56 34.402557 -118.437348 52 9011ft 158kts
15-May-19 20:57 34.429220 -118.394193 57 9007ft 161kts
15-May-19 20:58 34.455800 -118.350139 57 9002ft 162kts
15-May-19 20:59 34.482456 -118.305579 57 8988ft 164kts
15-May-19 21:00 34.509008 -118.260227 57 8968ft 165kts
15-May-19 21:01 34.535351 -118.214408 57 8953ft 165kts
15-May-19 21:02 34.561927 -118.168572 55 8952ft 165kts
15-May-19 21:03 34.589631 -118.123559 55 8961ft 168kts
15-May-19 21:04 34.617833 -118.078133 54 8953ft 168kts
15-May-19 21:05 34.638341 -118.029140 92 8870ft 165kts
15-May-19 21:06 34.642588 -117.971963 91 8389ft 172kts
15-May-19 21:07 34.646488 -117.913221 91 7829ft 176kts
15-May-19 21:08 34.650407 -117.853352 91 7133ft 178kts
15-May-19 21:09 34.649268 -117.794182 112 6442ft 172kts
15-May-19 21:10 34.637845 -117.738041 111 5966ft 165kts
15-May-19 21:11 34.627415 -117.684913 111 5962ft 160kts
15-May-19 21:12 34.654482 -117.662844 296 5956ft 129kts
15-May-19 21:13 34.667549 -117.700967 282 5961ft 124kts
15-May-19 21:14 34.671069 -117.738870 245 5962ft 114kts
15-May-19 21:15 34.669434 -117.776960 281 5961ft 124kts
15-May-19 21:15 34.680587 -117.809592 282 5961ft 125kts
15-May-19 21:17 34.696695 -117.854984 283 5963ft 125kts
15-May-19 21:18 34.710570 -117.893920 282 5963ft 125kts
15-May-19 21:19 34.724016 -117.931759 283 5966ft 125kts
15-May-19 21:20 34.731444 -117.969864 268 5961ft 103kts
15-May-19 21:20 34.734468 -117.998761 267 5531ft 94kts
15-May-19 21:22 34.737950 -118.032449 265 4939ft 76kts
15-May-19 21:22 34.740028 -118.053558 265 4550ft 82kts
15-May-19 21:23 34.742862 -118.081000 264 4051ft 75kts
15-May-19 21:24 34.745350 -118.105539 264 3684ft 70kts
15-May-19 21:25 34.747090 -118.129361 260 3637ft 79kts
15-May-19 21:27 34.746471 -118.150569 256 3284ft 43kts
15-May-19 21:27 34.745828 -118.165495 257 3096ft 67kts
15-May-19 21:28 34.746794 -118.183771 270 2742ft 49kts
15-May-19 21:29 34.745843 -118.200599 249 2510ft 53kts
15-May-19 21:30 34.742809 -118.211932 251 2339ft 6kts
15-May-19 21:31 34.742037 -118.214117 226 2339ft 12kts
15-May-19 21:32 34.741441 -118.214699 225 2339ft 0kts
15-May-19 21:33 34.741441 -118.214699 225 2339ft 0kts
15-May-19 21:34 34.741441 -118.214699 225 2339ft 0kts

Navigation Log

Ident Type
Flight plan parsing failed, navigation log unavailable